createdAt,value
2023-03-28T00:01:10.825Z,6.60
2023-03-28T00:03:40.537Z,6.70
2023-03-28T00:06:13.974Z,7.10
2023-03-28T00:08:42.437Z,6.30
2023-03-28T00:11:19.624Z,7.90
2023-03-28T00:13:58.327Z,5.80
2023-03-28T00:16:37.313Z,8.80
2023-03-28T00:19:11.834Z,4.30
2023-03-28T00:21:47.057Z,8.70
2023-03-28T00:24:18.030Z,5.80
2023-03-28T00:26:49.540Z,5.30
2023-03-28T00:29:21.426Z,8.00
2023-03-28T00:31:51.105Z,5.10
2023-03-28T00:34:19.371Z,3.70
2023-03-28T00:36:47.524Z,4.10
2023-03-28T00:42:43.571Z,4.60
2023-03-28T00:45:12.498Z,5.80
2023-03-28T00:47:53.112Z,5.20
2023-03-28T00:50:28.190Z,4.20
2023-03-28T00:53:10.213Z,5.10
2023-03-28T00:55:51.749Z,3.50
2023-03-28T00:58:31.192Z,3.60
2023-03-28T01:00:59.566Z,3.20
2023-03-28T01:03:34.782Z,4.20
2023-03-28T01:06:04.888Z,7.70
2023-03-28T01:08:37.942Z,5.70
2023-03-28T01:11:12.638Z,7.60
2023-03-28T01:13:46.235Z,5.70
2023-03-28T01:16:15.535Z,6.10
2023-03-28T01:18:51.639Z,6.10
2023-03-28T01:22:01.313Z,5.70
2023-03-28T01:25:06.188Z,4.70
2023-03-28T01:28:08.154Z,5.70
2023-03-28T01:37:17.944Z,5.40
2023-03-28T01:40:13.929Z,8.30
2023-03-28T01:42:53.487Z,6.70
2023-03-28T01:51:57.431Z,3.90
2023-03-28T01:54:31.095Z,3.10
2023-03-28T01:57:10.592Z,2.30
2023-03-28T01:59:40.394Z,3.30
2023-03-28T02:02:13.167Z,6.40
2023-03-28T02:04:42.212Z,3.60
2023-03-28T02:07:11.782Z,3.50
2023-03-28T02:09:43.195Z,2.50
2023-03-28T02:12:17.219Z,3.00
2023-03-28T02:14:46.958Z,3.50
2023-03-28T02:17:16.528Z,2.50
2023-03-28T02:19:50.578Z,6.60
2023-03-28T02:22:27.115Z,3.50
2023-03-28T02:24:56.497Z,3.50
2023-03-28T02:27:24.483Z,2.30
2023-03-28T02:29:54.713Z,3.30
2023-03-28T02:32:23.937Z,3.90
2023-03-28T02:34:54.107Z,3.60
2023-03-28T02:37:54.865Z,6.10
2023-03-28T02:41:01.788Z,6.70
2023-03-28T02:44:04.627Z,4.40
2023-03-28T02:47:00.081Z,4.70
2023-03-28T02:49:50.938Z,5.10
2023-03-28T02:52:40.884Z,7.90
2023-03-28T02:55:21.753Z,5.00
2023-03-28T02:57:55.240Z,5.80
2023-03-28T03:00:23.980Z,3.90
2023-03-28T03:02:52.571Z,4.10
2023-03-28T03:05:22.168Z,3.60
2023-03-28T03:07:51.673Z,3.10
2023-03-28T03:10:22.179Z,3.20
2023-03-28T03:12:50.684Z,4.20
2023-03-28T03:15:18.781Z,8.30
2023-03-28T03:17:47.249Z,3.90
2023-03-28T03:20:15.281Z,4.60
2023-03-28T03:22:43.401Z,3.30
2023-03-28T03:25:14.316Z,3.30
2023-03-28T03:27:42.776Z,3.90
2023-03-28T03:30:12.181Z,3.40
2023-03-28T03:32:40.197Z,3.80
2023-03-28T03:35:08.428Z,2.80
2023-03-28T03:37:36.587Z,4.20
2023-03-28T03:40:08.368Z,2.70
2023-03-28T03:42:37.265Z,4.20
2023-03-28T03:45:06.313Z,3.00
2023-03-28T03:47:35.690Z,5.00
2023-03-28T03:50:04.238Z,3.50
2023-03-28T03:52:32.178Z,3.80
2023-03-28T03:55:00.288Z,2.90
2023-03-28T03:57:28.377Z,3.40
2023-03-28T03:59:57.440Z,3.00
2023-03-28T04:02:26.562Z,4.40
2023-03-28T04:04:54.833Z,4.20
2023-03-28T04:07:22.819Z,3.50
2023-03-28T04:09:50.823Z,5.00
2023-03-28T04:12:18.792Z,2.60
2023-03-28T04:14:46.852Z,2.90
2023-03-28T04:17:16.298Z,3.20
2023-03-28T04:19:46.008Z,2.40
2023-03-28T04:22:14.096Z,4.50
2023-03-28T04:24:44.791Z,3.60
2023-03-28T04:27:12.961Z,2.40
2023-03-28T04:29:41.991Z,6.20
2023-03-28T04:32:11.497Z,2.50
2023-03-28T04:34:39.421Z,3.60
2023-03-28T04:37:09.365Z,5.00
2023-03-28T04:39:37.418Z,6.10
2023-03-28T04:42:06.277Z,3.50
2023-03-28T04:44:36.725Z,4.00
2023-03-28T04:47:04.852Z,2.80
2023-03-28T04:49:32.884Z,3.70
2023-03-28T04:52:01.229Z,4.30
2023-03-28T04:54:29.210Z,4.00
2023-03-28T04:56:57.293Z,5.50
2023-03-28T04:59:25.425Z,3.20
2023-03-28T05:01:53.533Z,4.40
2023-03-28T05:04:23.757Z,5.20
2023-03-28T05:06:51.801Z,3.50
2023-03-28T05:09:19.859Z,2.40
2023-03-28T05:11:47.956Z,2.90
2023-03-28T05:14:15.995Z,2.80
2023-03-28T05:16:43.999Z,2.60
2023-03-28T05:19:12.025Z,3.30
2023-03-28T05:21:41.314Z,3.30
2023-03-28T05:24:09.473Z,3.40
2023-03-28T05:26:37.857Z,5.00
2023-03-28T05:29:06.709Z,5.70
2023-03-28T05:31:34.880Z,3.90
2023-03-28T05:34:02.947Z,4.60
2023-03-28T05:36:31.512Z,3.80
2023-03-28T05:38:59.495Z,5.10
2023-03-28T05:41:28.286Z,5.00
2023-03-28T05:43:56.250Z,4.60
2023-03-28T05:46:24.170Z,5.80
2023-03-28T05:48:52.095Z,5.90
2023-03-28T05:51:20.159Z,5.90
2023-03-28T05:54:06.764Z,4.90
2023-03-28T05:56:37.373Z,7.00
2023-03-28T05:59:05.466Z,5.70
2023-03-28T06:01:35.083Z,6.60
2023-03-28T06:10:26.626Z,7.20
2023-03-28T06:12:54.548Z,5.50
2023-03-28T06:15:22.777Z,4.80
2023-03-28T06:17:50.906Z,5.90
2023-03-28T06:20:18.939Z,6.20
2023-03-28T06:22:47.209Z,5.70
2023-03-28T06:25:15.522Z,6.10
2023-03-28T06:27:43.388Z,6.30
2023-03-28T06:30:13.219Z,6.50
2023-03-28T06:32:41.277Z,6.00
2023-03-28T06:35:09.626Z,7.10
2023-03-28T06:37:37.626Z,4.90
2023-03-28T06:40:06.421Z,5.80
2023-03-28T06:42:34.568Z,5.50
2023-03-28T06:45:02.882Z,5.20
2023-03-28T06:47:30.924Z,4.10
2023-03-28T06:49:59.027Z,5.00
2023-03-28T06:52:27.136Z,4.10
2023-03-28T06:54:55.201Z,5.60
2023-03-28T06:57:23.321Z,4.20
2023-03-28T06:59:52.602Z,4.60
2023-03-28T07:02:20.914Z,7.30
2023-03-28T07:04:49.041Z,5.50
2023-03-28T07:07:16.918Z,6.50
2023-03-28T07:09:45.120Z,4.20
2023-03-28T07:12:12.997Z,5.40
2023-03-28T07:14:44.574Z,6.50
2023-03-28T07:17:12.502Z,4.10
2023-03-28T07:19:40.658Z,4.60
2023-03-28T07:22:09.417Z,5.80
2023-03-28T07:24:37.478Z,4.60
2023-03-28T07:29:37.635Z,4.60
2023-03-28T07:32:08.603Z,4.80
2023-03-28T07:34:36.539Z,3.40
2023-03-28T07:37:05.402Z,3.30
2023-03-28T07:39:34.672Z,4.10
2023-03-28T07:42:02.628Z,3.70
2023-03-28T07:44:30.779Z,4.60
2023-03-28T07:46:59.238Z,8.30
2023-03-28T07:49:46.125Z,4.20
2023-03-28T07:52:14.608Z,3.30
2023-03-28T07:54:42.831Z,5.70
2023-03-28T07:57:10.975Z,4.70
2023-03-28T07:59:39.292Z,4.40
2023-03-28T08:02:07.515Z,5.20
2023-03-28T08:04:35.621Z,4.60
2023-03-28T08:07:03.472Z,6.20
2023-03-28T08:09:31.823Z,4.10
2023-03-28T08:11:59.950Z,6.60
2023-03-28T08:14:28.157Z,5.20
2023-03-28T08:16:59.133Z,4.60
2023-03-28T08:19:27.041Z,4.70
2023-03-28T08:21:54.966Z,6.50
2023-03-28T08:24:34.950Z,4.90
2023-03-28T08:27:04.876Z,7.60
2023-03-28T08:29:33.012Z,6.00
2023-03-28T08:32:01.007Z,4.20
2023-03-28T08:34:28.948Z,4.80
2023-03-28T08:36:57.746Z,5.00
2023-03-28T08:39:26.381Z,5.20
2023-03-28T08:42:31.992Z,6.70
2023-03-28T08:45:29.247Z,16.90
2023-03-28T08:48:11.835Z,4.40
2023-03-28T08:50:55.532Z,4.80
2023-03-28T08:53:35.180Z,3.60
2023-03-28T08:56:07.148Z,3.60
2023-03-28T08:58:58.208Z,2.80
2023-03-28T09:01:29.381Z,2.60
2023-03-28T09:03:57.583Z,4.60
2023-03-28T09:06:41.169Z,4.90
2023-03-28T09:09:16.300Z,2.70
2023-03-28T09:11:55.779Z,3.80
2023-03-28T09:14:41.899Z,4.00
2023-03-28T09:17:39.271Z,2.50
2023-03-28T09:20:57.681Z,3.20
2023-03-28T09:24:16.649Z,2.30
2023-03-28T09:26:57.825Z,3.50
2023-03-28T09:29:26.101Z,3.00
2023-03-28T09:32:06.333Z,3.70
2023-03-28T09:34:47.926Z,4.30
2023-03-28T09:37:41.913Z,2.30
2023-03-28T09:40:32.108Z,4.00
2023-03-28T09:43:34.556Z,2.70
2023-03-28T09:46:09.552Z,3.20
2023-03-28T09:48:39.201Z,4.60
2023-03-28T09:51:15.163Z,2.70
2023-03-28T09:53:43.724Z,2.50
2023-03-28T09:56:44.471Z,3.60
2023-03-28T09:59:28.364Z,5.60
2023-03-28T10:01:58.139Z,3.50
2023-03-28T10:04:29.183Z,3.60
2023-03-28T10:07:29.593Z,3.20
2023-03-28T10:09:59.224Z,2.80
2023-03-28T10:12:37.844Z,4.20
2023-03-28T10:15:08.957Z,2.40
2023-03-28T10:17:37.624Z,3.60
2023-03-28T10:20:23.879Z,3.00
2023-03-28T10:22:55.010Z,3.80
2023-03-28T10:25:51.444Z,3.70
2023-03-28T10:28:31.876Z,3.70
2023-03-28T10:31:01.975Z,4.50
2023-03-28T10:33:42.775Z,3.60
2023-03-28T10:36:12.834Z,4.60
2023-03-28T10:38:44.251Z,4.20
2023-03-28T10:41:27.287Z,3.50
2023-03-28T10:43:57.030Z,4.70
2023-03-28T10:46:35.855Z,5.50
2023-03-28T10:49:14.151Z,2.80
2023-03-28T10:51:43.182Z,4.10
2023-03-28T10:54:32.291Z,6.20
2023-03-28T10:57:25.336Z,4.20
2023-03-28T11:00:14.236Z,4.00
2023-03-28T11:02:52.194Z,4.90
2023-03-28T11:05:42.697Z,3.40
2023-03-28T11:08:53.283Z,3.80
2023-03-28T11:11:54.371Z,3.70
2023-03-28T11:14:51.494Z,4.80
2023-03-28T11:18:10.616Z,4.40
2023-03-28T11:21:05.693Z,3.90
2023-03-28T11:23:55.461Z,4.10
2023-03-28T11:26:31.212Z,3.90
2023-03-28T11:29:19.859Z,5.80
2023-03-28T11:32:00.467Z,4.00
2023-03-28T11:34:43.443Z,4.50
2023-03-28T11:37:23.545Z,2.90
2023-03-28T11:40:09.576Z,5.70
2023-03-28T11:42:49.755Z,3.50
2023-03-28T11:45:51.902Z,4.10
2023-03-28T11:49:00.971Z,4.50
2023-03-28T11:51:34.415Z,4.20
2023-03-28T11:54:22.724Z,4.70
2023-03-28T11:57:14.911Z,3.30
2023-03-28T11:59:56.136Z,3.00
2023-03-28T12:02:30.245Z,7.40
2023-03-28T12:05:22.927Z,2.50
2023-03-28T12:07:53.224Z,6.70
2023-03-28T12:10:29.193Z,4.80
2023-03-28T12:13:16.398Z,3.50
2023-03-28T12:15:48.376Z,6.20
2023-03-28T12:18:32.060Z,4.70
2023-03-28T12:21:21.776Z,2.90
2023-03-28T12:24:02.131Z,3.60
2023-03-28T12:26:58.213Z,3.70
2023-03-28T12:30:26.769Z,2.40
2023-03-28T12:33:23.589Z,2.50
2023-03-28T12:36:18.494Z,3.50
2023-03-28T12:39:17.751Z,3.20
2023-03-28T12:41:46.288Z,4.20
2023-03-28T12:44:25.090Z,4.20
2023-03-28T12:47:16.513Z,2.90
2023-03-28T12:49:49.907Z,3.10
2023-03-28T12:52:27.953Z,4.30
2023-03-28T12:55:02.232Z,7.30
2023-03-28T12:57:45.299Z,8.10
2023-03-28T13:01:08.471Z,2.80
2023-03-28T13:04:01.582Z,4.90
2023-03-28T13:07:01.250Z,4.70
2023-03-28T13:10:36.244Z,6.70
2023-03-28T13:13:34.823Z,2.10
2023-03-28T13:16:26.782Z,2.80
2023-03-28T13:19:07.708Z,4.80
2023-03-28T13:24:26.795Z,3.10
2023-03-28T13:27:14.337Z,7.10
2023-03-28T13:29:52.593Z,4.40
2023-03-28T13:32:25.366Z,6.80
2023-03-28T13:37:43.198Z,5.10
2023-03-28T13:40:44.279Z,3.00
2023-03-28T13:43:33.872Z,3.70
2023-03-28T13:46:17.313Z,3.20
2023-03-28T13:49:09.905Z,2.20
2023-03-28T13:51:55.583Z,3.30
2023-03-28T13:54:25.083Z,3.90
2023-03-28T13:56:53.414Z,4.00
2023-03-28T13:59:32.034Z,4.70
2023-03-28T14:02:02.169Z,3.00
2023-03-28T14:04:35.150Z,3.00
2023-03-28T14:07:03.594Z,5.80
2023-03-28T14:09:34.534Z,5.30
2023-03-28T14:12:09.606Z,4.90
2023-03-28T14:14:55.674Z,6.70
2023-03-28T14:17:27.603Z,2.60
2023-03-28T14:20:08.100Z,4.60
2023-03-28T14:22:52.847Z,4.10
2023-03-28T14:25:27.623Z,3.60
2023-03-28T14:27:57.053Z,4.10
2023-03-28T14:30:32.195Z,6.70
2023-03-28T14:33:14.771Z,3.40
2023-03-28T14:35:45.669Z,2.20
2023-03-28T14:38:30.781Z,2.40
2023-03-28T14:41:21.355Z,3.30
2023-03-28T14:43:57.432Z,3.40
2023-03-28T14:46:29.298Z,6.70
2023-03-28T14:49:01.381Z,4.80
2023-03-28T14:51:39.859Z,3.40
2023-03-28T14:54:14.588Z,6.20
2023-03-28T14:56:48.110Z,4.40
2023-03-28T14:59:19.064Z,4.40
2023-03-28T15:01:49.970Z,3.90
2023-03-28T15:04:20.396Z,2.70
2023-03-28T15:06:57.311Z,3.70
2023-03-28T15:09:34.223Z,2.70
2023-03-28T15:12:09.211Z,2.40
2023-03-28T15:14:42.938Z,3.90
2023-03-28T15:17:19.575Z,2.70
2023-03-28T15:19:55.977Z,3.20
2023-03-28T15:22:30.014Z,3.70
2023-03-28T15:24:58.338Z,6.20
2023-03-28T15:27:34.380Z,8.10
2023-03-28T15:30:17.350Z,2.60
2023-03-28T15:32:45.805Z,4.30
2023-03-28T15:35:31.861Z,2.60
2023-03-28T15:38:02.984Z,4.80
2023-03-28T15:40:41.916Z,2.70
2023-03-28T15:43:39.105Z,4.40
2023-03-28T15:46:15.181Z,3.10
2023-03-28T15:48:43.604Z,2.80
2023-03-28T15:51:21.729Z,3.90
2023-03-28T15:53:51.612Z,2.70
2023-03-28T15:56:32.214Z,3.20
2023-03-28T15:59:03.960Z,3.10
2023-03-28T16:01:34.173Z,4.80
2023-03-28T16:04:25.198Z,3.30
2023-03-28T16:06:58.690Z,6.80
2023-03-28T16:09:26.690Z,3.30
2023-03-28T16:12:03.026Z,4.20
2023-03-28T16:14:31.261Z,4.40
2023-03-28T16:16:59.284Z,3.20
2023-03-28T16:19:34.356Z,2.70
2023-03-28T16:22:02.300Z,2.90
2023-03-28T16:24:30.731Z,4.00
2023-03-28T16:26:59.927Z,5.00
2023-03-28T16:29:28.391Z,2.30
2023-03-28T16:31:56.703Z,2.50
2023-03-28T16:34:24.822Z,3.10
2023-03-28T16:36:56.040Z,4.90
2023-03-28T16:39:24.919Z,2.80
2023-03-28T16:41:52.951Z,3.20
2023-03-28T16:44:21.202Z,3.50
2023-03-28T16:46:50.971Z,4.30
2023-03-28T16:49:19.133Z,4.90
2023-03-28T16:51:47.608Z,3.50
2023-03-28T16:54:15.702Z,8.00
2023-03-28T16:56:53.076Z,7.20
2023-03-28T16:59:23.723Z,6.30
2023-03-28T17:01:52.287Z,5.60
2023-03-28T17:04:22.512Z,5.50
2023-03-28T17:06:51.339Z,6.20
2023-03-28T17:09:19.447Z,5.40
2023-03-28T17:11:47.696Z,7.80
2023-03-28T17:14:15.801Z,5.10
2023-03-28T17:16:45.302Z,6.00
2023-03-28T17:19:14.262Z,5.20
2023-03-28T17:21:42.663Z,5.40
2023-03-28T17:24:11.686Z,7.10
2023-03-28T17:26:40.226Z,6.30
2023-03-28T17:29:10.108Z,5.40
2023-03-28T17:31:46.069Z,7.40
2023-03-28T17:34:14.771Z,7.30
2023-03-28T17:36:45.867Z,5.30
2023-03-28T17:39:13.835Z,8.50
2023-03-28T17:41:41.856Z,8.90
2023-03-28T17:44:10.099Z,7.70
2023-03-28T17:46:41.460Z,8.10
2023-03-28T17:49:09.752Z,6.70
2023-03-28T17:51:38.074Z,7.30
2023-03-28T17:54:12.031Z,8.80
2023-03-28T17:56:40.243Z,8.20
2023-03-28T17:59:08.268Z,11.80
2023-03-28T18:01:36.432Z,11.20
2023-03-28T18:04:04.519Z,9.20
2023-03-28T18:06:33.441Z,9.70
2023-03-28T18:09:01.405Z,11.20
2023-03-28T18:11:29.428Z,13.80
2023-03-28T18:13:58.814Z,12.70
2023-03-28T18:16:27.729Z,9.80
2023-03-28T18:18:57.402Z,10.00
2023-03-28T18:21:25.593Z,13.20
2023-03-28T18:23:54.552Z,15.70
2023-03-28T18:26:22.728Z,13.90
2023-03-28T18:28:50.865Z,14.10
2023-03-28T18:31:28.166Z,14.80
2023-03-28T18:33:57.524Z,16.90
2023-03-28T18:36:26.530Z,18.40
2023-03-28T18:38:56.288Z,18.70
2023-03-28T18:41:25.374Z,19.80
2023-03-28T18:46:35.712Z,14.70
2023-03-28T18:49:03.915Z,16.40
2023-03-28T18:51:31.974Z,14.20
2023-03-28T18:54:00.932Z,16.90
2023-03-28T18:56:29.212Z,13.30
2023-03-28T18:58:57.410Z,12.90
2023-03-28T19:01:25.540Z,15.80
2023-03-28T19:03:55.460Z,13.90
2023-03-28T19:06:23.565Z,14.90
2023-03-28T19:08:51.607Z,11.90
2023-03-28T19:11:20.302Z,10.80
2023-03-28T19:13:48.459Z,13.70
2023-03-28T19:16:19.372Z,11.60
2023-03-28T19:18:48.127Z,12.00
2023-03-28T19:21:17.185Z,12.50
2023-03-28T19:23:47.629Z,16.30
2023-03-28T19:26:18.354Z,15.60
2023-03-28T19:28:47.171Z,15.10
2023-03-28T19:31:15.774Z,14.10
2023-03-28T19:33:44.886Z,23.20
2023-03-28T19:36:13.197Z,32.30
2023-03-28T19:38:41.646Z,45.50
2023-03-28T19:41:20.000Z,54.90
2023-03-28T19:43:49.098Z,57.10
2023-03-28T19:46:33.197Z,54.20
2023-03-28T19:49:06.005Z,60.80
2023-03-28T19:51:34.978Z,62.10
2023-03-28T19:54:03.492Z,51.30
2023-03-28T19:56:31.974Z,75.70
2023-03-28T19:59:03.862Z,67.00
2023-03-28T20:01:31.999Z,68.30
2023-03-28T20:04:00.170Z,49.70
2023-03-28T20:06:28.354Z,42.30
2023-03-28T20:08:56.429Z,34.70
2023-03-28T20:11:24.730Z,32.40
2023-03-28T20:13:52.781Z,32.10
2023-03-28T20:16:20.860Z,25.30
2023-03-28T20:18:48.895Z,24.10
2023-03-28T20:21:16.986Z,28.80
2023-03-28T20:23:45.108Z,26.50
2023-03-28T20:26:25.940Z,36.00
2023-03-28T20:28:59.642Z,37.40
2023-03-28T20:31:28.653Z,40.40
2023-03-28T20:33:57.318Z,37.90
2023-03-28T20:36:25.222Z,34.20
2023-03-28T20:38:54.984Z,43.40
2023-03-28T20:41:24.154Z,36.90
2023-03-28T20:43:53.265Z,40.40
2023-03-28T20:46:21.991Z,48.30
2023-03-28T20:48:52.615Z,42.10
2023-03-28T20:51:22.878Z,43.20
2023-03-28T20:53:59.217Z,40.20
2023-03-28T20:56:30.954Z,37.00
2023-03-28T20:58:59.791Z,34.20
2023-03-28T21:01:33.110Z,32.40
2023-03-28T21:04:02.309Z,45.60
2023-03-28T21:06:34.693Z,33.10
2023-03-28T21:09:06.781Z,30.90
2023-03-28T21:11:36.844Z,32.40
2023-03-28T21:14:06.732Z,34.80
2023-03-28T21:16:37.518Z,28.00
2023-03-28T21:19:06.073Z,34.90
2023-03-28T21:21:34.871Z,29.10
2023-03-28T21:24:05.292Z,35.90
2023-03-28T21:26:33.695Z,25.30
2023-03-28T21:29:01.716Z,39.40
2023-03-28T21:31:30.929Z,33.50
2023-03-28T21:33:59.823Z,37.30
2023-03-28T21:36:28.495Z,41.10
2023-03-28T21:38:57.078Z,44.10
2023-03-28T21:41:27.691Z,48.00
2023-03-28T21:43:57.070Z,39.20
2023-03-28T21:46:25.385Z,45.30
2023-03-28T21:48:53.422Z,44.20
2023-03-28T21:51:21.586Z,52.40
2023-03-28T21:53:49.614Z,46.50
2023-03-28T21:56:17.723Z,46.80
2023-03-28T21:58:45.833Z,38.30
2023-03-28T22:01:14.973Z,37.00
2023-03-28T22:03:44.511Z,31.90
2023-03-28T22:06:14.311Z,29.30
2023-03-28T22:08:46.453Z,25.60
2023-03-28T22:11:20.849Z,26.50
2023-03-28T22:13:48.858Z,32.10
2023-03-28T22:16:16.974Z,32.70
2023-03-28T22:18:50.501Z,32.00
2023-03-28T22:21:18.583Z,37.30
2023-03-28T22:23:49.466Z,32.40
2023-03-28T22:26:18.136Z,33.90
2023-03-28T22:28:46.414Z,33.90
2023-03-28T22:31:17.093Z,33.20
2023-03-28T22:33:45.148Z,32.70
2023-03-28T22:36:13.690Z,44.00
2023-03-28T22:38:41.837Z,39.90
2023-03-28T22:41:10.253Z,44.70
2023-03-28T22:43:38.510Z,47.60
2023-03-28T22:46:06.730Z,44.00
2023-03-28T22:48:38.289Z,44.10
2023-03-28T22:51:11.828Z,44.50
2023-03-28T22:53:40.160Z,49.90
2023-03-28T22:56:08.934Z,56.40
2023-03-28T22:58:37.086Z,51.30
2023-03-28T23:01:05.923Z,55.40
2023-03-28T23:03:34.112Z,75.40
2023-03-28T23:06:06.277Z,65.20
2023-03-28T23:08:34.954Z,74.70
2023-03-28T23:11:03.408Z,72.70
2023-03-28T23:13:33.746Z,83.90
2023-03-28T23:16:02.831Z,93.80
2023-03-28T23:18:30.891Z,87.10
2023-03-28T23:20:59.037Z,84.90
2023-03-28T23:23:27.316Z,79.30
2023-03-28T23:25:55.281Z,92.00
2023-03-28T23:28:23.189Z,81.90
2023-03-28T23:30:51.101Z,76.70
2023-03-28T23:33:19.325Z,77.10
2023-03-28T23:35:48.512Z,73.60
2023-03-28T23:38:17.713Z,74.90
2023-03-28T23:40:46.295Z,69.10
2023-03-28T23:43:14.690Z,80.10
2023-03-28T23:45:43.507Z,74.40
2023-03-28T23:48:11.618Z,66.70
2023-03-28T23:50:39.490Z,68.90
2023-03-28T23:53:07.497Z,68.20
2023-03-28T23:55:35.727Z,65.30
2023-03-28T23:58:04.702Z,66.20
